createdAt,value
2018-06-03T00:00:57.689Z,1.53
2018-06-03T00:03:24.002Z,1.43
2018-06-03T00:05:50.312Z,1.90
2018-06-03T00:08:16.641Z,2.30
2018-06-03T00:10:42.974Z,2.90
2018-06-03T00:13:10.408Z,2.60
2018-06-03T00:15:36.720Z,3.50
2018-06-03T00:18:03.051Z,1.67
2018-06-03T00:20:41.653Z,1.50
2018-06-03T00:23:07.981Z,2.13
2018-06-03T00:25:34.264Z,2.23
2018-06-03T00:28:01.327Z,1.90
2018-06-03T00:30:27.730Z,2.47
2018-06-03T00:32:54.075Z,2.00
2018-06-03T00:35:21.135Z,1.47
2018-06-03T00:37:47.428Z,1.77
2018-06-03T00:40:13.777Z,1.80
2018-06-03T00:42:40.839Z,1.47
2018-06-03T00:45:07.927Z,1.70
2018-06-03T00:47:34.248Z,1.70
2018-06-03T00:50:00.586Z,1.73
2018-06-03T00:52:27.195Z,1.80
2018-06-03T00:54:53.549Z,2.20
2018-06-03T00:57:19.858Z,1.73
2018-06-03T00:59:46.948Z,1.77
2018-06-03T01:02:44.810Z,2.50
2018-06-03T01:05:12.393Z,4.17
2018-06-03T01:07:39.969Z,2.50
2018-06-03T01:10:07.580Z,2.60
2018-06-03T01:12:35.249Z,3.83
2018-06-03T01:15:02.827Z,3.57
2018-06-03T01:17:30.378Z,2.57
2018-06-03T01:19:57.909Z,1.87
2018-06-03T01:22:25.458Z,2.07
2018-06-03T01:24:53.008Z,1.93
2018-06-03T01:27:20.503Z,1.93
2018-06-03T01:29:48.044Z,1.60
2018-06-03T01:32:15.537Z,2.80
2018-06-03T01:34:43.054Z,1.87
2018-06-03T01:37:10.577Z,2.47
2018-06-03T01:39:38.118Z,1.93
2018-06-03T01:42:05.791Z,1.90
2018-06-03T01:44:33.352Z,1.80
2018-06-03T01:47:00.878Z,1.73
2018-06-03T01:49:28.414Z,1.77
2018-06-03T01:51:55.947Z,1.67
2018-06-03T01:54:23.471Z,1.40
2018-06-03T01:56:50.994Z,1.90
2018-06-03T01:59:18.498Z,1.97
2018-06-03T02:01:46.143Z,1.67
2018-06-03T02:04:13.674Z,1.57
2018-06-03T02:06:41.189Z,1.67
2018-06-03T02:09:08.734Z,2.10
2018-06-03T02:11:36.377Z,1.80
2018-06-03T02:14:03.918Z,1.83
2018-06-03T02:16:31.428Z,1.70
2018-06-03T02:18:58.984Z,1.60
2018-06-03T02:21:26.539Z,1.57
2018-06-03T02:23:54.106Z,1.43
2018-06-03T02:26:21.803Z,2.30
2018-06-03T02:28:49.361Z,3.30
2018-06-03T02:31:17.185Z,2.40
2018-06-03T02:33:44.710Z,1.63
2018-06-03T02:36:12.240Z,1.50
2018-06-03T02:38:39.813Z,2.27
2018-06-03T02:41:07.349Z,2.27
2018-06-03T02:43:34.914Z,1.73
2018-06-03T02:46:02.443Z,1.83
2018-06-03T02:48:30.235Z,1.67
2018-06-03T02:50:57.798Z,1.70
2018-06-03T02:53:25.308Z,1.90
2018-06-03T02:55:52.856Z,2.00
2018-06-03T02:58:20.400Z,3.27
2018-06-03T03:00:47.931Z,2.23
2018-06-03T03:03:15.679Z,1.77
2018-06-03T03:05:43.196Z,1.87
2018-06-03T03:08:10.719Z,1.87
2018-06-03T03:10:38.223Z,1.90
2018-06-03T03:13:05.768Z,4.77
2018-06-03T03:15:33.313Z,2.77
2018-06-03T03:18:00.855Z,1.93
2018-06-03T03:20:28.694Z,2.80
2018-06-03T03:22:56.168Z,1.60
2018-06-03T03:25:23.698Z,1.97
2018-06-03T03:27:51.244Z,1.70
2018-06-03T03:30:18.794Z,1.40
2018-06-03T03:32:46.352Z,1.67
2018-06-03T03:35:13.914Z,1.93
2018-06-03T03:37:41.488Z,1.87
2018-06-03T03:40:09.016Z,1.40
2018-06-03T03:42:36.555Z,4.30
2018-06-03T03:45:04.079Z,4.23
2018-06-03T03:47:31.580Z,3.00
2018-06-03T03:49:59.114Z,2.47
2018-06-03T03:52:26.654Z,2.57
2018-06-03T03:54:54.383Z,1.70
2018-06-03T03:57:21.885Z,1.50
2018-06-03T03:59:49.412Z,1.93
2018-06-03T04:02:16.911Z,2.90
2018-06-03T04:04:44.411Z,2.23
2018-06-03T04:07:11.932Z,1.50
2018-06-03T04:09:39.493Z,2.17
2018-06-03T04:12:07.074Z,2.47
2018-06-03T04:14:34.615Z,2.47
2018-06-03T04:17:02.075Z,2.50
2018-06-03T04:19:29.591Z,3.70
2018-06-03T04:21:57.224Z,2.30
2018-06-03T04:24:24.770Z,2.00
2018-06-03T04:26:52.262Z,2.27
2018-06-03T04:29:19.814Z,2.00
2018-06-03T04:31:47.330Z,1.70
2018-06-03T04:34:14.979Z,1.90
2018-06-03T04:36:42.513Z,1.93
2018-06-03T04:39:10.062Z,1.60
2018-06-03T04:41:37.562Z,2.00
2018-06-03T04:44:05.347Z,2.00
2018-06-03T04:46:32.862Z,5.63
2018-06-03T04:49:00.617Z,6.43
2018-06-03T04:51:28.220Z,7.07
2018-06-03T04:53:55.750Z,7.00
2018-06-03T04:56:23.269Z,4.30
2018-06-03T04:58:50.789Z,3.87
2018-06-03T05:01:18.303Z,6.40
2018-06-03T05:03:49.780Z,6.73
2018-06-03T05:06:17.318Z,6.70
2018-06-03T05:08:44.866Z,5.73
2018-06-03T05:11:12.373Z,4.33
2018-06-03T05:13:39.903Z,4.13
2018-06-03T05:16:07.502Z,3.73
2018-06-03T05:18:35.030Z,3.40
2018-06-03T05:21:02.515Z,4.40
2018-06-03T05:23:30.196Z,5.97
2018-06-03T05:25:57.718Z,5.30
2018-06-03T05:28:25.264Z,4.37
2018-06-03T05:30:52.800Z,4.13
2018-06-03T05:33:20.363Z,4.90
2018-06-03T05:35:47.883Z,4.67
2018-06-03T05:38:15.429Z,5.13
2018-06-03T05:40:42.965Z,4.13
2018-06-03T05:43:10.685Z,3.27
2018-06-03T05:45:38.232Z,2.83
2018-06-03T05:48:05.774Z,3.43
2018-06-03T05:50:33.433Z,3.87
2018-06-03T05:53:01.192Z,2.93
2018-06-03T05:55:28.769Z,2.40
2018-06-03T05:57:56.330Z,2.00
2018-06-03T06:00:23.898Z,2.10
2018-06-03T06:02:51.626Z,2.63
2018-06-03T06:05:19.168Z,3.27
2018-06-03T06:07:46.689Z,4.93
2018-06-03T06:10:14.205Z,4.10
2018-06-03T06:12:41.703Z,5.97
2018-06-03T06:15:09.252Z,4.47
2018-06-03T06:17:36.823Z,4.30
2018-06-03T06:20:05.453Z,4.73
2018-06-03T06:22:32.970Z,4.80
2018-06-03T06:25:00.556Z,6.13
2018-06-03T06:27:28.035Z,5.67
2018-06-03T06:29:55.734Z,4.57
2018-06-03T06:32:23.282Z,5.87
2018-06-03T06:34:50.795Z,4.60
2018-06-03T06:37:18.371Z,4.03
2018-06-03T06:39:45.912Z,4.40
2018-06-03T06:42:13.954Z,4.00
2018-06-03T06:44:41.484Z,4.00
2018-06-03T06:47:09.077Z,4.30
2018-06-03T06:49:36.638Z,4.57
2018-06-03T06:52:04.197Z,3.93
2018-06-03T06:54:32.231Z,3.90
2018-06-03T06:56:59.733Z,3.53
2018-06-03T06:59:27.295Z,4.33
2018-06-03T07:01:54.796Z,3.30
2018-06-03T07:04:22.330Z,3.17
2018-06-03T07:06:49.894Z,2.57
2018-06-03T07:09:17.405Z,3.37
2018-06-03T07:11:44.976Z,2.80
2018-06-03T07:14:12.668Z,2.67
2018-06-03T07:16:40.605Z,3.40
2018-06-03T07:19:08.150Z,2.53
2018-06-03T07:21:35.917Z,2.00
2018-06-03T07:27:00.349Z,3.30
2018-06-03T07:29:28.028Z,2.57
2018-06-03T07:31:58.381Z,2.07
2018-06-03T07:34:26.634Z,2.53
2018-06-03T07:36:54.198Z,2.73
2018-06-03T07:39:21.783Z,2.47
2018-06-03T07:41:49.359Z,2.40
2018-06-03T07:44:16.836Z,2.47
2018-06-03T07:46:44.429Z,2.63
2018-06-03T07:49:12.031Z,2.60
2018-06-03T07:51:39.572Z,2.73
2018-06-03T07:54:07.144Z,2.97
2018-06-03T07:56:34.699Z,2.90
2018-06-03T07:59:02.216Z,2.13
2018-06-03T08:01:29.757Z,2.80
2018-06-03T08:03:57.354Z,2.03
2018-06-03T08:06:24.931Z,2.50
2018-06-03T08:08:52.478Z,3.17
2018-06-03T08:11:20.084Z,2.60
2018-06-03T08:13:47.695Z,2.67
2018-06-03T08:16:15.298Z,2.80
2018-06-03T08:18:42.886Z,2.17
2018-06-03T08:21:10.464Z,2.43
2018-06-03T08:23:37.994Z,2.27
2018-06-03T08:26:05.602Z,3.20
2018-06-03T08:28:33.283Z,2.40
2018-06-03T08:31:00.929Z,2.57
2018-06-03T08:33:28.478Z,2.97
2018-06-03T08:35:56.108Z,2.83
2018-06-03T08:38:23.737Z,2.60
2018-06-03T08:40:51.343Z,1.87
2018-06-03T08:43:18.883Z,3.00
2018-06-03T08:45:46.362Z,2.70
2018-06-03T08:48:13.954Z,2.50
2018-06-03T08:50:41.565Z,2.17
2018-06-03T08:53:09.097Z,2.43
2018-06-03T08:55:36.714Z,2.60
2018-06-03T08:58:04.282Z,2.80
2018-06-03T09:00:35.641Z,3.20
2018-06-03T09:03:03.200Z,2.90
2018-06-03T09:05:30.856Z,2.73
2018-06-03T09:07:58.529Z,2.73
2018-06-03T09:10:26.026Z,2.20
2018-06-03T09:12:54.673Z,3.03
2018-06-03T09:15:22.343Z,2.63
2018-06-03T09:17:53.358Z,2.33
2018-06-03T09:20:20.941Z,2.80
2018-06-03T09:22:48.431Z,2.20
2018-06-03T09:25:15.932Z,2.60
2018-06-03T09:27:43.471Z,2.02
2018-06-03T09:30:11.272Z,2.02
2018-06-03T09:32:41.601Z,1.95
2018-06-03T09:35:09.270Z,2.55
2018-06-03T09:37:38.451Z,2.47
2018-06-03T09:40:07.758Z,2.35
2018-06-03T09:42:35.546Z,2.15
2018-06-03T09:45:03.142Z,1.90
2018-06-03T09:47:30.674Z,2.00
2018-06-03T09:49:59.279Z,1.90
2018-06-03T09:52:26.890Z,2.30
2018-06-03T09:54:54.410Z,2.17
2018-06-03T09:57:21.929Z,1.98
2018-06-03T09:59:49.467Z,2.65
2018-06-03T10:02:17.298Z,2.50
2018-06-03T10:04:44.984Z,2.05
2018-06-03T10:07:12.532Z,1.95
2018-06-03T10:09:40.039Z,2.30
2018-06-03T10:12:07.534Z,2.58
2018-06-03T10:14:35.311Z,2.02
2018-06-03T10:17:02.866Z,2.42
2018-06-03T10:19:30.391Z,2.40
2018-06-03T10:21:57.885Z,2.10
2018-06-03T10:24:25.423Z,2.00
2018-06-03T10:26:52.906Z,2.30
2018-06-03T10:29:20.434Z,2.50
2018-06-03T10:31:47.929Z,2.20
2018-06-03T10:34:15.472Z,2.25
2018-06-03T10:36:42.998Z,1.92
2018-06-03T10:39:10.539Z,1.80
2018-06-03T10:41:38.068Z,2.17
2018-06-03T10:44:05.558Z,2.20
2018-06-03T10:46:33.096Z,2.22
2018-06-03T10:49:00.590Z,2.17
2018-06-03T10:51:28.367Z,1.77
2018-06-03T10:53:55.868Z,2.12
2018-06-03T10:56:23.351Z,2.00
2018-06-03T10:58:50.880Z,1.80
2018-06-03T11:01:18.357Z,2.00
2018-06-03T11:03:45.867Z,1.55
2018-06-03T11:06:13.388Z,2.02
2018-06-03T11:08:40.901Z,1.80
2018-06-03T11:11:08.415Z,1.80
2018-06-03T11:13:36.065Z,1.90
2018-06-03T11:16:03.582Z,1.50
2018-06-03T11:18:31.084Z,1.87
2018-06-03T11:20:58.564Z,1.87
2018-06-03T11:23:26.062Z,1.75
2018-06-03T11:25:53.625Z,1.80
2018-06-03T11:28:21.129Z,2.00
2018-06-03T11:30:48.773Z,2.00
2018-06-03T11:33:16.250Z,1.85
2018-06-03T11:35:43.785Z,2.33
2018-06-03T11:38:11.269Z,2.60
2018-06-03T11:40:38.766Z,2.22
2018-06-03T11:43:06.279Z,1.92
2018-06-03T11:45:33.958Z,1.80
2018-06-03T11:48:01.610Z,1.80
2018-06-03T11:50:29.126Z,1.80
2018-06-03T11:52:56.642Z,1.60
2018-06-03T11:55:24.127Z,1.70
2018-06-03T11:58:34.289Z,2.17
2018-06-03T12:01:02.175Z,1.72
2018-06-03T12:03:29.829Z,2.00
2018-06-03T12:05:57.456Z,2.12
2018-06-03T12:08:24.963Z,1.80
2018-06-03T12:10:52.506Z,1.98
2018-06-03T12:13:20.098Z,1.95
2018-06-03T12:15:47.598Z,2.10
2018-06-03T12:18:15.090Z,2.25
2018-06-03T12:20:42.641Z,2.22
2018-06-03T12:23:10.206Z,1.77
2018-06-03T12:25:37.702Z,1.90
2018-06-03T12:28:05.246Z,1.70
2018-06-03T12:30:33.941Z,1.50
2018-06-03T12:33:01.479Z,1.50
2018-06-03T12:35:28.985Z,2.45
2018-06-03T12:37:56.567Z,1.87
2018-06-03T12:40:24.074Z,1.80
2018-06-03T12:42:51.582Z,2.00
2018-06-03T12:45:19.078Z,1.80
2018-06-03T12:47:46.635Z,1.70
2018-06-03T12:50:14.151Z,1.80
2018-06-03T12:52:41.702Z,1.87
2018-06-03T12:55:09.218Z,1.70
2018-06-03T12:57:36.708Z,1.95
2018-06-03T13:00:04.579Z,1.87
2018-06-03T13:02:32.090Z,1.95
2018-06-03T13:04:59.560Z,1.80
2018-06-03T13:07:27.061Z,2.10
2018-06-03T13:09:54.599Z,1.70
2018-06-03T13:12:22.118Z,1.80
2018-06-03T13:14:49.631Z,2.10
2018-06-03T13:17:18.393Z,1.52
2018-06-03T13:19:46.078Z,1.77
2018-06-03T13:22:13.606Z,1.40
2018-06-03T13:24:41.121Z,1.50
2018-06-03T13:27:08.626Z,1.70
2018-06-03T13:29:36.152Z,2.00
2018-06-03T13:32:03.847Z,1.98
2018-06-03T13:34:31.302Z,2.20
2018-06-03T13:36:58.782Z,2.00
2018-06-03T13:39:27.002Z,1.87
2018-06-03T13:41:54.522Z,1.75
2018-06-03T13:44:22.082Z,1.85
2018-06-03T13:46:49.641Z,1.60
2018-06-03T13:49:17.138Z,1.90
2018-06-03T13:51:44.651Z,1.75
2018-06-03T13:54:12.145Z,1.70
2018-06-03T13:56:39.713Z,1.70
2018-06-03T13:59:07.172Z,1.98
2018-06-03T14:01:34.699Z,1.77
2018-06-03T14:04:02.241Z,2.10
2018-06-03T14:06:29.775Z,1.60
2018-06-03T14:08:57.335Z,1.98
2018-06-03T14:11:24.881Z,1.60
2018-06-03T14:13:52.370Z,1.50
2018-06-03T14:16:20.075Z,1.65
2018-06-03T14:18:47.552Z,1.80
2018-06-03T14:21:15.038Z,1.82
2018-06-03T14:23:42.535Z,1.70
2018-06-03T14:26:10.067Z,1.67
2018-06-03T14:28:38.197Z,1.67
2018-06-03T14:31:05.819Z,1.82
2018-06-03T14:33:33.458Z,1.67
2018-06-03T14:36:00.963Z,2.00
2018-06-03T14:38:28.470Z,1.70
2018-06-03T14:40:56.026Z,1.60
2018-06-03T14:43:23.510Z,1.60
2018-06-03T14:45:51.086Z,1.98
2018-06-03T14:48:18.565Z,1.77
2018-06-03T14:50:46.102Z,1.67
2018-06-03T14:53:13.610Z,4.65
2018-06-03T14:55:41.130Z,2.22
2018-06-03T14:58:08.689Z,1.95
2018-06-03T15:00:36.198Z,1.70
2018-06-03T15:03:03.798Z,1.77
2018-06-03T15:05:31.315Z,1.90
2018-06-03T15:07:58.826Z,2.20
2018-06-03T15:10:26.346Z,1.77
2018-06-03T15:12:53.859Z,2.15
2018-06-03T15:15:21.534Z,2.30
2018-06-03T15:17:49.053Z,1.90
2018-06-03T15:20:16.960Z,1.80
2018-06-03T15:22:44.497Z,1.80
2018-06-03T15:25:12.089Z,2.20
2018-06-03T15:27:39.681Z,2.33
2018-06-03T15:30:07.218Z,1.75
2018-06-03T15:32:34.721Z,2.00
2018-06-03T15:35:02.274Z,1.95
2018-06-03T15:37:29.758Z,2.12
2018-06-03T15:39:57.279Z,2.40
2018-06-03T15:42:24.782Z,2.23
2018-06-03T15:44:52.442Z,2.35
2018-06-03T15:47:20.007Z,2.40
2018-06-03T15:49:47.509Z,2.00
2018-06-03T15:52:15.010Z,2.10
2018-06-03T15:54:42.674Z,1.97
2018-06-03T15:57:10.236Z,1.90
2018-06-03T15:59:37.731Z,1.60
2018-06-03T16:02:05.546Z,1.90
2018-06-03T16:04:33.129Z,1.50
2018-06-03T16:07:00.802Z,1.95
2018-06-03T16:09:28.483Z,1.50
2018-06-03T16:11:56.096Z,1.60
2018-06-03T16:14:23.610Z,2.10
2018-06-03T16:16:51.144Z,2.08
2018-06-03T16:19:18.658Z,1.82
2018-06-03T16:21:46.175Z,1.90
2018-06-03T16:24:13.945Z,2.22
2018-06-03T16:26:41.634Z,1.90
2018-06-03T16:29:09.158Z,1.90
2018-06-03T16:31:36.676Z,1.30
2018-06-03T16:34:04.210Z,1.75
2018-06-03T16:36:31.735Z,2.10
2018-06-03T16:39:00.547Z,2.37
2018-06-03T16:41:28.037Z,2.03
2018-06-03T16:43:55.563Z,2.03
2018-06-03T16:46:23.222Z,1.87
2018-06-03T16:48:50.729Z,1.90
2018-06-03T16:51:18.353Z,1.90
2018-06-03T16:53:45.907Z,1.93
2018-06-03T16:56:13.490Z,2.07
2018-06-03T16:58:41.035Z,2.10
2018-06-03T17:01:08.571Z,1.90
2018-06-03T17:03:36.063Z,1.77
2018-06-03T17:06:03.590Z,2.00
2018-06-03T17:08:31.078Z,2.03
2018-06-03T17:10:58.649Z,2.00
2018-06-03T17:13:26.189Z,1.90
2018-06-03T17:15:54.056Z,2.03
2018-06-03T17:18:21.592Z,2.17
2018-06-03T17:20:49.130Z,1.90
2018-06-03T17:23:16.657Z,1.93
2018-06-03T17:25:44.164Z,1.80
2018-06-03T17:28:15.198Z,1.93
2018-06-03T17:30:42.705Z,1.93
2018-06-03T17:33:10.200Z,1.80
2018-06-03T17:35:37.751Z,1.77
2018-06-03T17:38:05.322Z,1.80
2018-06-03T17:40:34.305Z,1.57
2018-06-03T17:43:01.852Z,1.97
2018-06-03T17:45:29.362Z,1.57
2018-06-03T17:47:56.862Z,1.87
2018-06-03T17:50:24.380Z,1.70
2018-06-03T17:52:52.000Z,1.60
2018-06-03T17:55:20.636Z,1.90
2018-06-03T17:57:48.192Z,1.30
2018-06-03T18:00:16.175Z,1.50
2018-06-03T18:02:43.724Z,1.30
2018-06-03T18:05:11.326Z,1.50
2018-06-03T18:07:38.875Z,1.63
2018-06-03T18:10:06.438Z,1.43
2018-06-03T18:12:35.000Z,1.40
2018-06-03T18:15:02.582Z,1.47
2018-06-03T18:17:30.303Z,1.20
2018-06-03T18:19:57.869Z,1.37
2018-06-03T18:22:25.502Z,2.37
2018-06-03T18:24:53.036Z,1.57
2018-06-03T18:27:20.588Z,1.80
2018-06-03T18:29:52.187Z,1.50
2018-06-03T18:32:19.746Z,1.73
2018-06-03T18:34:47.292Z,1.60
2018-06-03T18:37:14.814Z,1.30
2018-06-03T18:39:45.052Z,1.37
2018-06-03T18:42:14.630Z,1.40
2018-06-03T18:44:42.303Z,1.20
2018-06-03T18:47:10.052Z,1.33
2018-06-03T18:49:37.644Z,1.50
2018-06-03T18:52:05.495Z,1.20
2018-06-03T18:54:33.064Z,1.40
2018-06-03T18:57:00.814Z,1.30
2018-06-03T18:59:28.585Z,1.50
2018-06-03T19:01:56.453Z,1.53
2018-06-03T19:04:24.196Z,1.50
2018-06-03T19:06:51.868Z,1.43
2018-06-03T19:09:20.398Z,1.30
2018-06-03T19:11:48.823Z,1.60
2018-06-03T19:14:18.895Z,1.53
2018-06-03T19:16:46.838Z,1.70
2018-06-03T19:19:14.419Z,1.57
2018-06-03T19:21:42.138Z,1.70
2018-06-03T19:24:09.691Z,1.60
2018-06-03T19:26:37.235Z,1.83
2018-06-03T19:29:04.826Z,1.60
2018-06-03T19:31:32.402Z,1.50
2018-06-03T19:33:59.985Z,1.07
2018-06-03T19:36:27.541Z,1.60
2018-06-03T19:38:55.078Z,1.20
2018-06-03T19:41:22.651Z,1.60
2018-06-03T19:43:50.217Z,1.20
2018-06-03T19:46:17.912Z,1.33
2018-06-03T19:48:45.498Z,1.47
2018-06-03T19:51:13.238Z,2.00
2018-06-03T19:53:40.863Z,1.80
2018-06-03T19:56:08.403Z,1.27
2018-06-03T19:58:35.986Z,1.20
2018-06-03T20:01:03.503Z,1.10
2018-06-03T20:03:31.045Z,1.30
2018-06-03T20:05:58.618Z,1.53
2018-06-03T20:08:26.167Z,1.83
2018-06-03T20:10:53.785Z,1.23
2018-06-03T20:13:21.773Z,1.67
2018-06-03T20:15:49.276Z,1.60
2018-06-03T20:18:16.950Z,1.70
2018-06-03T20:20:44.446Z,1.70
2018-06-03T20:23:12.209Z,1.50
2018-06-03T20:25:39.708Z,1.70
2018-06-03T20:28:07.338Z,1.50
2018-06-03T20:30:34.975Z,1.70
2018-06-03T20:33:02.535Z,1.30
2018-06-03T20:35:30.057Z,1.43
2018-06-03T20:37:57.746Z,1.30
2018-06-03T20:40:25.414Z,1.43
2018-06-03T20:42:52.932Z,1.70
2018-06-03T20:45:20.476Z,1.33
2018-06-03T20:47:48.005Z,1.30
2018-06-03T20:50:15.547Z,1.77
2018-06-03T20:52:43.093Z,2.07
2018-06-03T20:55:10.590Z,1.60
2018-06-03T20:57:38.168Z,1.30
2018-06-03T21:00:05.779Z,1.63
2018-06-03T21:02:33.334Z,1.50
2018-06-03T21:05:00.889Z,1.27
2018-06-03T21:07:28.434Z,1.60
2018-06-03T21:09:55.966Z,1.53
2018-06-03T21:12:23.533Z,1.47
2018-06-03T21:14:51.082Z,1.40
2018-06-03T21:17:18.696Z,1.27
2018-06-03T21:19:46.530Z,1.20
2018-06-03T21:22:14.066Z,1.50
2018-06-03T21:24:42.095Z,1.47
2018-06-03T21:27:09.581Z,1.60
2018-06-03T21:29:37.149Z,1.30
2018-06-03T21:32:04.937Z,1.27
2018-06-03T21:34:32.471Z,1.30
2018-06-03T21:37:00.019Z,1.03
2018-06-03T21:39:27.589Z,1.30
2018-06-03T21:41:55.134Z,1.30
2018-06-03T21:44:22.658Z,1.30
2018-06-03T21:46:50.214Z,1.30
2018-06-03T21:49:17.851Z,1.10
2018-06-03T21:51:45.362Z,1.07
2018-06-03T21:54:12.898Z,1.53
2018-06-03T21:56:40.957Z,1.70
2018-06-03T21:59:08.551Z,1.40
2018-06-03T22:01:36.135Z,1.67
2018-06-03T22:04:03.655Z,1.50
2018-06-03T22:06:31.161Z,1.90
2018-06-03T22:08:58.735Z,1.90
2018-06-03T22:11:26.288Z,1.30
2018-06-03T22:13:53.855Z,1.60
2018-06-03T22:16:21.447Z,1.60
2018-06-03T22:18:48.947Z,1.70
2018-06-03T22:21:16.487Z,1.43
2018-06-03T22:23:44.014Z,1.73
2018-06-03T22:26:11.682Z,1.23
2018-06-03T22:28:39.261Z,1.43
2018-06-03T22:31:06.997Z,1.57
2018-06-03T22:33:34.606Z,1.50
2018-06-03T22:36:02.140Z,1.60
2018-06-03T22:38:29.649Z,1.50
2018-06-03T22:40:57.279Z,1.47
2018-06-03T22:43:24.873Z,1.57
2018-06-03T22:45:52.438Z,1.47
2018-06-03T22:48:19.995Z,1.57
2018-06-03T22:50:47.590Z,1.50
2018-06-03T22:53:15.112Z,1.10
2018-06-03T22:55:42.661Z,1.30
2018-06-03T22:58:10.143Z,1.27
2018-06-03T23:00:37.747Z,1.10
2018-06-03T23:03:10.988Z,1.73
2018-06-03T23:05:38.529Z,0.93
2018-06-03T23:08:06.082Z,2.03
2018-06-03T23:10:33.629Z,1.40
2018-06-03T23:13:01.175Z,2.20
2018-06-03T23:15:28.896Z,1.57
2018-06-03T23:17:57.567Z,1.70
2018-06-03T23:20:25.110Z,1.63
2018-06-03T23:22:52.676Z,1.80
2018-06-03T23:25:20.221Z,1.40
2018-06-03T23:27:47.742Z,1.17
2018-06-03T23:30:15.534Z,2.00
2018-06-03T23:32:43.413Z,1.80
2018-06-03T23:35:10.956Z,1.53
2018-06-03T23:37:38.487Z,1.83
2018-06-03T23:40:06.055Z,1.40
2018-06-03T23:42:33.690Z,1.60
2018-06-03T23:45:01.220Z,1.57
2018-06-03T23:47:28.736Z,1.97
2018-06-03T23:49:56.268Z,1.80
2018-06-03T23:52:23.830Z,1.77
2018-06-03T23:54:51.529Z,1.50
2018-06-03T23:57:20.135Z,1.53
2018-06-03T23:59:47.697Z,2.10
